Time;durP1;ratioP1;P1;durP2;ratioP2;P2;SDS_P1;SDS_P2;PMS_P1;PMS_P2;Temp;Humidity;BMP_temperature;BMP_pressure;BME280_temperature;BME280_humidity;BME280_pressure;Samples;Min_cycle;Max_cycle;Signal;HPM_P1;HPM_P2
2023/10/07 00:00:47;;;;;;;19.35;5.82;;;;;;;;;;4994656;28;94755;-64
2023/10/07 00:03:07;;;;;;;22.05;6.03;;;;;;;;;;4991052;28;94897;-63
2023/10/07 00:05:35;;;;;;;12.00;5.18;;;;;;;;;;4996350;28;94566;-64
2023/10/07 00:08:16;;;;;;;15.40;4.75;;;;;;;;;;4994395;28;92557;-64
2023/10/07 00:10:46;;;;;;;14.68;6.03;;;;;;;;;;4993576;28;93136;-63
2023/10/07 00:13:13;;;;;;;13.80;5.30;;;;;;;;;;4993625;28;94391;-64
2023/10/07 00:15:43;;;;;;;23.63;5.57;;;;;;;;;;4994366;28;93111;-64
2023/10/07 00:18:16;;;;;;;20.50;6.20;;;;;;;;;;4993651;28;93376;-63
2023/10/07 00:20:49;;;;;;;21.20;6.68;;;;;;;;;;4994085;28;92662;-63
2023/10/07 00:23:19;;;;;;;17.85;5.93;;;;;;;;;;4993907;28;93555;-63
2023/10/07 00:25:51;;;;;;;20.08;5.85;;;;;;;;;;4993685;28;93289;-64
2023/10/07 00:28:20;;;;;;;30.73;6.13;;;;;;;;;;4995067;28;95967;-63
2023/10/07 00:30:47;;;;;;;25.85;6.63;;;;;;;;;;4993733;28;95495;-64
2023/10/07 00:33:14;;;;;;;17.10;5.47;;;;;;;;;;4993366;28;93486;-63
2023/10/07 00:35:49;;;;;;;22.08;5.90;;;;;;;;;;4994207;28;96410;-63
2023/10/07 00:38:16;;;;;;;24.60;5.68;;;;;;;;;;4992734;28;93074;-63
2023/10/07 00:40:46;;;;;;;30.33;7.18;;;;;;;;;;4993764;28;94369;-63
2023/10/07 00:43:25;;;;;;;23.90;5.63;;;;;;;;;;4993459;28;92684;-66
2023/10/07 00:46:10;;;;;;;25.98;7.30;;;;;;;;;;4990708;28;93295;-65
2023/10/07 00:48:52;;;;;;;17.17;5.60;;;;;;;;;;4992910;28;94750;-66
2023/10/07 00:51:33;;;;;;;21.58;6.10;;;;;;;;;;4996531;28;92544;-66
2023/10/07 00:57:09;;;;;;;19.73;5.65;;;;;;;;;;4990297;28;93050;-66
2023/10/07 00:59:36;;;;;;;20.10;6.20;;;;;;;;;;4991188;28;92405;-65
2023/10/07 01:02:06;;;;;;;16.38;6.32;;;;;;;;;;4993696;28;93325;-66
2023/10/07 01:04:42;;;;;;;23.45;6.85;;;;;;;;;;4993581;28;92584;-65
2023/10/07 01:07:18;;;;;;;29.90;6.93;;;;;;;;;;4993121;28;93499;-66
2023/10/07 01:09:57;;;;;;;21.55;6.40;;;;;;;;;;4992786;28;93536;-66
2023/10/07 01:12:25;;;;;;;24.98;6.72;;;;;;;;;;4987158;28;91720;-66
2023/10/07 01:14:53;;;;;;;22.95;6.05;;;;;;;;;;4994977;28;92706;-66
2023/10/07 01:17:30;;;;;;;31.38;6.68;;;;;;;;;;4993562;28;92646;-66
2023/10/07 01:19:57;;;;;;;20.40;6.82;;;;;;;;;;4988299;28;95278;-66
2023/10/07 01:22:35;;;;;;;24.95;7.00;;;;;;;;;;4989308;28;93371;-66
2023/10/07 01:25:06;;;;;;;19.33;6.88;;;;;;;;;;4989857;28;92509;-66
2023/10/07 01:27:41;;;;;;;27.52;7.30;;;;;;;;;;4993528;28;94173;-66
2023/10/07 01:30:16;;;;;;;19.80;6.68;;;;;;;;;;4992546;28;95464;-66
2023/10/07 01:32:53;;;;;;;27.60;7.03;;;;;;;;;;4991834;28;92408;-66
2023/10/07 01:35:25;;;;;;;27.27;8.13;;;;;;;;;;4995898;28;93079;-66
2023/10/07 01:37:59;;;;;;;30.02;7.10;;;;;;;;;;4993163;28;92502;-66
2023/10/07 01:40:55;;;;;;;21.60;6.95;;;;;;;;;;4992975;28;92762;-66
2023/10/07 01:43:19;;;;;;;26.25;7.15;;;;;;;;;;4992188;28;94807;-66
2023/10/07 01:45:48;;;;;;;27.60;7.35;;;;;;;;;;4991052;28;95395;-66
2023/10/07 01:48:17;;;;;;;19.65;6.93;;;;;;;;;;4993032;28;95463;-66
2023/10/07 01:50:44;;;;;;;26.92;7.03;;;;;;;;;;4992241;28;93410;-66
2023/10/07 01:53:16;;;;;;;30.95;7.50;;;;;;;;;;4992438;28;92487;-66
2023/10/07 01:55:43;;;;;;;36.75;10.00;;;;;;;;;;4992218;28;93317;-66
2023/10/07 01:58:13;;;;;;;20.80;7.78;;;;;;;;;;4993617;28;92552;-66
2023/10/07 02:00:46;;;;;;;31.02;7.70;;;;;;;;;;4993677;28;93245;-66
2023/10/07 02:03:13;;;;;;;29.75;8.90;;;;;;;;;;4996028;28;92652;-66
2023/10/07 02:05:41;;;;;;;25.42;7.38;;;;;;;;;;4995876;28;92434;-66
2023/10/07 02:08:18;;;;;;;16.95;7.22;;;;;;;;;;4995759;28;92453;-66
2023/10/07 02:10:45;;;;;;;25.85;7.63;;;;;;;;;;4998464;28;95937;-65
2023/10/07 02:13:19;;;;;;;27.50;7.93;;;;;;;;;;4995685;28;92461;-65
2023/10/07 02:15:46;;;;;;;17.83;7.47;;;;;;;;;;4995594;28;93459;-65
2023/10/07 02:18:16;;;;;;;21.88;7.00;;;;;;;;;;4995413;28;93381;-66
2023/10/07 02:20:49;;;;;;;26.00;7.80;;;;;;;;;;4998828;28;92474;-66
2023/10/07 02:23:21;;;;;;;20.77;6.90;;;;;;;;;;4996445;28;93452;-66
2023/10/07 02:25:50;;;;;;;27.77;8.20;;;;;;;;;;4995476;28;92385;-65
2023/10/07 02:28:21;;;;;;;26.10;7.88;;;;;;;;;;4996351;28;93545;-65
2023/10/07 02:30:52;;;;;;;23.50;7.43;;;;;;;;;;4995286;28;93422;-66
2023/10/07 02:33:27;;;;;;;26.98;8.00;;;;;;;;;;4995072;28;92603;-65
2023/10/07 02:35:56;;;;;;;22.25;7.93;;;;;;;;;;4994051;28;94757;-65
2023/10/07 02:38:29;;;;;;;28.05;9.15;;;;;;;;;;4995167;28;93373;-65
2023/10/07 02:41:06;;;;;;;26.15;7.78;;;;;;;;;;4994569;28;92585;-65
2023/10/07 02:43:34;;;;;;;33.88;8.25;;;;;;;;;;4994911;28;93141;-65
2023/10/07 02:46:01;;;;;;;30.38;7.40;;;;;;;;;;4995540;28;92545;-66
2023/10/07 02:48:34;;;;;;;27.25;8.18;;;;;;;;;;4991520;28;93245;-65
2023/10/07 02:51:09;;;;;;;30.83;8.07;;;;;;;;;;4991661;28;93438;-66
2023/10/07 02:53:35;;;;;;;30.48;8.38;;;;;;;;;;4992258;28;92030;-65
2023/10/07 02:56:16;;;;;;;27.95;8.25;;;;;;;;;;4995642;28;92927;-66
2023/10/07 02:58:59;;;;;;;32.20;7.85;;;;;;;;;;4994791;28;93444;-66
2023/10/07 03:01:26;;;;;;;30.15;8.13;;;;;;;;;;4993832;28;94966;-66
2023/10/07 03:03:54;;;;;;;24.48;8.75;;;;;;;;;;4994859;28;95467;-63
2023/10/07 03:06:25;;;;;;;26.75;7.10;;;;;;;;;;4997998;28;93350;-63
2023/10/07 03:09:00;;;;;;;27.80;8.73;;;;;;;;;;4996004;28;94105;-63
2023/10/07 03:11:40;;;;;;;17.38;7.25;;;;;;;;;;4994050;28;96657;-64
2023/10/07 03:14:12;;;;;;;33.75;8.05;;;;;;;;;;4989995;28;92592;-63
2023/10/07 03:16:45;;;;;;;27.45;8.07;;;;;;;;;;4995096;28;94369;-63
2023/10/07 03:19:22;;;;;;;29.95;8.77;;;;;;;;;;4994269;28;92675;-63
2023/10/07 03:24:28;;;;;;;27.17;7.93;;;;;;;;;;4994961;28;93163;-63
2023/10/07 03:27:05;;;;;;;24.35;7.30;;;;;;;;;;4992941;28;96813;-62
2023/10/07 03:29:36;;;;;;;27.52;7.40;;;;;;;;;;4997679;28;92778;-63
2023/10/07 03:32:12;;;;;;;19.50;7.00;;;;;;;;;;4991266;28;94410;-62
2023/10/07 03:34:42;;;;;;;32.38;7.68;;;;;;;;;;4992226;28;92862;-63
2023/10/07 03:39:55;;;;;;;31.92;8.75;;;;;;;;;;4994251;28;94436;-64
2023/10/07 03:42:22;;;;;;;28.48;7.50;;;;;;;;;;4993744;28;92713;-63
2023/10/07 03:44:49;;;;;;;27.70;8.20;;;;;;;;;;4995053;28;93551;-64
2023/10/07 03:47:16;;;;;;;33.63;8.30;;;;;;;;;;4994340;28;92583;-63
2023/10/07 03:49:48;;;;;;;27.38;7.70;;;;;;;;;;4997008;28;92560;-62
2023/10/07 03:52:19;;;;;;;21.48;7.97;;;;;;;;;;4992716;28;95879;-62
2023/10/07 03:54:47;;;;;;;30.52;8.25;;;;;;;;;;4994064;28;92437;-63
2023/10/07 03:57:15;;;;;;;25.98;8.38;;;;;;;;;;4993921;28;94231;-63
2023/10/07 03:59:41;;;;;;;24.75;7.50;;;;;;;;;;4993727;28;93602;-62
2023/10/07 04:05:00;;;;;;;33.63;7.93;;;;;;;;;;4993987;28;93296;-63
2023/10/07 04:07:30;;;;;;;36.70;8.27;;;;;;;;;;4993535;28;93539;-65
2023/10/07 04:10:11;;;;;;;23.30;7.30;;;;;;;;;;4994534;28;91819;-65
2023/10/07 04:12:39;;;;;;;;;;;;;;;;;;4994148;28;92529;-65
2023/10/07 04:15:10;;;;;;;25.48;8.30;;;;;;;;;;4994938;28;118401;-63
2023/10/07 04:17:38;;;;;;;22.17;7.18;;;;;;;;;;4993057;28;95676;-63
2023/10/07 04:20:18;;;;;;;29.25;8.55;;;;;;;;;;4993580;28;94559;-63
2023/10/07 04:22:45;;;;;;;24.07;7.43;;;;;;;;;;4991475;28;92754;-63
2023/10/07 04:25:17;;;;;;;26.80;7.88;;;;;;;;;;4993293;28;93243;-63
2023/10/07 04:27:43;;;;;;;19.48;7.45;;;;;;;;;;4993559;28;93744;-63
2023/10/07 04:30:13;;;;;;;27.27;8.38;;;;;;;;;;4993410;28;92676;-63
2023/10/07 04:32:52;;;;;;;23.30;8.25;;;;;;;;;;4992837;28;93115;-63
2023/10/07 04:35:26;;;;;;;27.15;7.70;;;;;;;;;;4997022;28;93690;-62
2023/10/07 04:37:59;;;;;;;30.80;8.23;;;;;;;;;;4993832;28;93255;-62
2023/10/07 04:43:25;;;;;;;25.23;7.63;;;;;;;;;;4991830;28;94859;-63
2023/10/07 04:45:53;;;;;;;33.67;8.85;;;;;;;;;;4991515;28;96677;-63
2023/10/07 04:48:34;;;;;;;24.15;7.43;;;;;;;;;;4993047;28;93621;-63
2023/10/07 04:51:03;;;;;;;33.65;8.52;;;;;;;;;;4993436;28;92511;-63
2023/10/07 04:53:38;;;;;;;34.42;8.15;;;;;;;;;;4993631;28;93138;-63
2023/10/07 04:56:08;;;;;;;31.10;8.27;;;;;;;;;;4992455;28;94398;-64
2023/10/07 04:58:34;;;;;;;29.30;9.55;;;;;;;;;;4992976;28;92611;-63
2023/10/07 05:01:22;;;;;;;31.35;8.52;;;;;;;;;;4993400;28;92644;-64
2023/10/07 05:03:55;;;;;;;31.95;8.40;;;;;;;;;;4992036;28;92465;-63
2023/10/07 05:06:22;;;;;;;30.55;7.38;;;;;;;;;;4993394;28;93084;-64
2023/10/07 05:08:48;;;;;;;26.83;8.35;;;;;;;;;;4991543;28;96834;-63
2023/10/07 05:11:17;;;;;;;31.85;7.50;;;;;;;;;;4992878;28;92564;-63
2023/10/07 05:13:47;;;;;;;26.27;7.43;;;;;;;;;;4992610;28;93196;-62
2023/10/07 05:16:14;;;;;;;29.73;8.20;;;;;;;;;;4993295;28;94473;-63
2023/10/07 05:18:42;;;;;;;35.45;8.68;;;;;;;;;;4992749;28;92656;-62
2023/10/07 05:21:08;;;;;;;32.85;8.45;;;;;;;;;;4996144;28;93105;-63
2023/10/07 05:23:36;;;;;;;36.03;8.90;;;;;;;;;;4993181;28;92377;-63
2023/10/07 05:26:03;;;;;;;29.33;8.02;;;;;;;;;;4992485;28;94308;-63
2023/10/07 05:28:33;;;;;;;22.65;7.53;;;;;;;;;;4993064;28;94453;-63
2023/10/07 05:31:03;;;;;;;34.72;8.50;;;;;;;;;;4992842;28;92574;-62
2023/10/07 05:33:34;;;;;;;37.10;7.93;;;;;;;;;;4991528;28;94849;-63
2023/10/07 05:36:00;;;;;;;;;;;;;;;;;;4992738;28;93530;-61
2023/10/07 05:38:27;;;;;;;24.23;6.60;;;;;;;;;;4993332;28;117100;-63
2023/10/07 05:40:54;;;;;;;32.03;7.20;;;;;;;;;;4994913;28;93169;-63
2023/10/07 05:43:21;;;;;;;33.35;7.85;;;;;;;;;;4992373;28;92429;-63
2023/10/07 05:45:48;;;;;;;31.13;7.97;;;;;;;;;;4992811;28;92701;-62
2023/10/07 05:48:15;;;;;;;26.52;7.55;;;;;;;;;;4992970;28;92775;-63
2023/10/07 05:50:41;;;;;;;35.55;7.57;;;;;;;;;;4992617;28;91739;-62
2023/10/07 05:53:09;;;;;;;27.42;8.30;;;;;;;;;;4992562;28;92699;-63
2023/10/07 05:55:36;;;;;;;32.15;7.97;;;;;;;;;;4989351;28;93491;-62
2023/10/07 05:58:04;;;;;;;35.65;7.80;;;;;;;;;;4990957;28;94962;-63
2023/10/07 06:00:35;;;;;;;27.00;7.22;;;;;;;;;;4991634;28;94191;-63
2023/10/07 06:03:06;;;;;;;23.40;6.50;;;;;;;;;;4994981;28;93409;-62
2023/10/07 06:05:33;;;;;;;32.80;8.82;;;;;;;;;;4991885;28;93182;-63
2023/10/07 06:08:00;;;;;;;29.80;7.18;;;;;;;;;;4991186;28;93580;-63
2023/10/07 06:10:26;;;;;;;30.52;7.70;;;;;;;;;;4992637;28;92485;-63
2023/10/07 06:12:53;;;;;;;29.25;7.95;;;;;;;;;;4992133;28;93166;-63
2023/10/07 06:15:20;;;;;;;29.15;8.25;;;;;;;;;;4991661;28;92621;-63
2023/10/07 06:17:46;;;;;;;35.40;8.50;;;;;;;;;;4992370;28;92616;-63
2023/10/07 06:20:16;;;;;;;29.98;7.88;;;;;;;;;;4990881;28;93116;-63
2023/10/07 06:22:45;;;;;;;33.03;8.55;;;;;;;;;;4990383;28;96861;-63
2023/10/07 06:25:12;;;;;;;39.60;10.13;;;;;;;;;;4995667;28;92500;-64
2023/10/07 06:27:42;;;;;;;40.03;9.00;;;;;;;;;;4991394;28;93727;-63
2023/10/07 06:30:09;;;;;;;31.90;9.00;;;;;;;;;;4988411;28;92708;-63
2023/10/07 06:32:45;;;;;;;38.63;9.40;;;;;;;;;;4986991;28;93146;-64
2023/10/07 06:35:21;;;;;;;35.17;9.32;;;;;;;;;;4989207;28;92488;-64
2023/10/07 06:37:50;;;;;;;38.03;9.98;;;;;;;;;;4992007;28;92596;-64
2023/10/07 06:40:28;;;;;;;31.65;8.90;;;;;;;;;;4991903;28;93370;-63
2023/10/07 06:43:01;;;;;;;33.22;8.77;;;;;;;;;;4990568;28;93425;-63
2023/10/07 06:45:39;;;;;;;35.17;9.32;;;;;;;;;;4991725;28;92450;-63
2023/10/07 06:48:09;;;;;;;34.47;10.10;;;;;;;;;;4996262;28;94756;-63
2023/10/07 06:50:41;;;;;;;32.00;8.60;;;;;;;;;;4993886;28;92564;-63
2023/10/07 06:53:11;;;;;;;37.20;9.57;;;;;;;;;;4990163;28;93529;-63
2023/10/07 06:55:41;;;;;;;32.03;8.48;;;;;;;;;;4991116;28;93418;-63
2023/10/07 06:58:09;;;;;;;28.92;7.65;;;;;;;;;;4992249;28;92456;-64
2023/10/07 07:00:47;;;;;;;33.40;8.35;;;;;;;;;;4995116;28;94204;-64
2023/10/07 07:03:17;;;;;;;39.92;9.13;;;;;;;;;;4991884;28;93543;-63
2023/10/07 07:05:51;;;;;;;23.73;7.90;;;;;;;;;;4995356;28;91781;-64
2023/10/07 07:08:22;;;;;;;23.88;7.97;;;;;;;;;;4994250;28;92936;-63
2023/10/07 07:10:55;;;;;;;36.60;9.32;;;;;;;;;;4997228;28;93357;-64
2023/10/07 07:13:27;;;;;;;45.25;8.13;;;;;;;;;;4993284;28;94897;-63
2023/10/07 07:15:57;;;;;;;30.30;8.57;;;;;;;;;;4994339;28;93425;-63
2023/10/07 07:18:27;;;;;;;32.30;8.32;;;;;;;;;;4993242;28;92614;-63
2023/10/07 07:23:21;;;;;;;35.80;8.82;;;;;;;;;;4994954;28;93417;-63
2023/10/07 07:26:03;;;;;;;29.77;8.88;;;;;;;;;;4997330;28;92801;-64
2023/10/07 07:28:34;;;;;;;30.30;9.05;;;;;;;;;;4994787;28;94478;-64
2023/10/07 07:31:00;;;;;;;29.15;8.88;;;;;;;;;;4994718;28;92954;-63
2023/10/07 07:33:34;;;;;;;27.67;9.05;;;;;;;;;;4997614;28;92477;-63
2023/10/07 07:36:06;;;;;;;27.70;9.00;;;;;;;;;;4994795;28;94805;-63
2023/10/07 07:38:45;;;;;;;22.52;8.07;;;;;;;;;;4992460;28;94854;-63
2023/10/07 07:41:26;;;;;;;23.50;8.20;;;;;;;;;;4989832;28;95489;-63
2023/10/07 07:43:58;;;;;;;36.83;9.15;;;;;;;;;;4993391;28;93502;-64
2023/10/07 07:46:51;;;;;;;25.33;8.15;;;;;;;;;;4995182;28;92716;-65
2023/10/07 07:49:27;;;;;;;27.20;8.07;;;;;;;;;;4996381;28;94227;-65
2023/10/07 07:51:54;;;;;;;32.78;8.70;;;;;;;;;;4994035;28;93378;-65
2023/10/07 07:54:24;;;;;;;33.95;9.32;;;;;;;;;;4997708;28;92612;-65
2023/10/07 07:56:51;;;;;;;32.42;8.88;;;;;;;;;;4994512;28;92326;-65
2023/10/07 07:59:18;;;;;;;36.33;9.10;;;;;;;;;;4992998;28;92505;-66
2023/10/07 08:01:46;;;;;;;28.52;8.55;;;;;;;;;;4989577;28;93969;-66
2023/10/07 08:04:19;;;;;;;29.80;9.18;;;;;;;;;;4989428;28;95207;-66
2023/10/07 08:06:49;;;;;;;31.33;9.38;;;;;;;;;;4991161;28;92390;-66
2023/10/07 08:09:19;;;;;;;30.13;8.80;;;;;;;;;;4993150;28;94375;-66
2023/10/07 08:11:46;;;;;;;33.70;8.43;;;;;;;;;;4993730;28;93492;-66
2023/10/07 08:14:13;;;;;;;29.50;8.27;;;;;;;;;;4993884;28;92496;-67
2023/10/07 08:16:58;;;;;;;26.38;8.70;;;;;;;;;;4996506;28;93213;-66
2023/10/07 08:19:24;;;;;;;36.42;9.18;;;;;;;;;;4991272;28;92621;-66
2023/10/07 08:21:51;;;;;;;34.08;8.77;;;;;;;;;;4994447;28;93216;-66
2023/10/07 08:24:20;;;;;;;29.55;8.80;;;;;;;;;;4993672;28;93347;-66
2023/10/07 08:26:56;;;;;;;26.15;8.60;;;;;;;;;;4994002;28;92445;-66
2023/10/07 08:29:31;;;;;;;27.00;7.88;;;;;;;;;;4992611;28;94959;-66
2023/10/07 08:31:59;;;;;;;26.55;8.00;;;;;;;;;;4993554;28;93420;-66
2023/10/07 08:34:33;;;;;;;28.38;9.07;;;;;;;;;;4993018;28;92575;-66
2023/10/07 08:37:03;;;;;;;29.73;9.82;;;;;;;;;;4993177;28;93073;-66
2023/10/07 08:39:44;;;;;;;22.30;8.43;;;;;;;;;;4996589;28;93371;-66
2023/10/07 08:42:13;;;;;;;20.42;8.45;;;;;;;;;;4992539;28;93142;-66
2023/10/07 08:44:40;;;;;;;32.70;8.48;;;;;;;;;;4993622;28;94512;-66
2023/10/07 08:47:11;;;;;;;20.85;8.18;;;;;;;;;;4993938;28;91682;-66
2023/10/07 08:49:38;;;;;;;22.58;7.63;;;;;;;;;;4993523;28;92572;-65
2023/10/07 08:52:10;;;;;;;29.52;7.72;;;;;;;;;;4993126;28;94756;-66
2023/10/07 08:54:37;;;;;;;29.70;7.50;;;;;;;;;;4992267;28;97847;-65
2023/10/07 08:57:08;;;;;;;27.55;7.70;;;;;;;;;;4992897;28;95560;-65
2023/10/07 08:59:35;;;;;;;38.22;11.95;;;;;;;;;;4992249;28;92688;-66
2023/10/07 09:02:04;;;;;;;24.13;7.65;;;;;;;;;;4995398;28;95075;-66
2023/10/07 09:04:33;;;;;;;28.50;7.20;;;;;;;;;;4992940;28;93404;-66
2023/10/07 09:07:00;;;;;;;29.95;8.35;;;;;;;;;;4993019;28;92692;-65
2023/10/07 09:09:32;;;;;;;26.30;6.88;;;;;;;;;;4991849;28;93179;-65
2023/10/07 09:12:03;;;;;;;23.48;6.93;;;;;;;;;;4993516;28;92673;-66
2023/10/07 09:14:30;;;;;;;18.98;6.10;;;;;;;;;;4993466;28;92438;-66
2023/10/07 09:16:57;;;;;;;25.02;6.70;;;;;;;;;;4991974;28;92963;-66
2023/10/07 09:19:23;;;;;;;23.55;7.00;;;;;;;;;;4992120;28;96998;-66
2023/10/07 09:21:56;;;;;;;26.00;7.18;;;;;;;;;;4993751;28;92450;-65
2023/10/07 09:24:26;;;;;;;21.30;6.45;;;;;;;;;;4996604;28;93159;-65
2023/10/07 09:26:56;;;;;;;19.20;6.47;;;;;;;;;;4992808;28;92451;-65
2023/10/07 09:29:24;;;;;;;28.38;7.18;;;;;;;;;;4992039;28;93017;-65
2023/10/07 09:31:56;;;;;;;22.88;5.60;;;;;;;;;;4992924;28;93592;-65
2023/10/07 09:34:32;;;;;;;26.17;7.40;;;;;;;;;;4996616;28;92970;-65
2023/10/07 09:36:58;;;;;;;18.67;6.80;;;;;;;;;;4993008;28;94212;-66
2023/10/07 09:42:26;;;;;;;19.02;5.50;;;;;;;;;;4992469;28;92541;-66
2023/10/07 09:44:54;;;;;;;23.77;5.53;;;;;;;;;;4988131;28;94947;-66
2023/10/07 09:47:22;;;;;;;23.55;6.05;;;;;;;;;;4996046;28;94374;-65
2023/10/07 09:49:50;;;;;;;20.08;5.18;;;;;;;;;;4992187;28;94324;-66
2023/10/07 09:52:19;;;;;;;26.27;5.90;;;;;;;;;;4988580;28;93083;-65
2023/10/07 09:55:19;;;;;;;26.50;5.93;;;;;;;;;;4989582;28;92446;-65
2023/10/07 09:57:46;;;;;;;;;;;;;;;;;;4989510;28;92840;-66
2023/10/07 10:03:28;;;;;;;22.25;6.20;;;;;;;;;;4987807;28;91818;-65
2023/10/07 10:05:58;;;;;;;22.23;5.38;;;;;;;;;;4990565;28;93462;-65
2023/10/07 10:08:44;;;;;;;22.20;5.27;;;;;;;;;;4995326;28;94943;-63
2023/10/07 10:11:23;;;;;;;24.80;5.57;;;;;;;;;;4991222;28;95053;-63
2023/10/07 10:16:28;;;;;;;21.42;5.47;;;;;;;;;;4989034;28;92503;-63
2023/10/07 10:21:44;;;;;;;30.80;5.85;;;;;;;;;;4992927;28;93748;-63
2023/10/07 10:24:15;;;;;;;25.17;6.20;;;;;;;;;;4994958;28;92378;-63
2023/10/07 10:26:43;;;;;;;27.65;5.28;;;;;;;;;;4996002;28;93163;-63
2023/10/07 10:29:16;;;;;;;17.63;4.97;;;;;;;;;;4995223;28;92843;-63
2023/10/07 10:31:49;;;;;;;28.92;6.40;;;;;;;;;;4998952;28;92495;-63
2023/10/07 10:34:16;;;;;;;30.73;5.80;;;;;;;;;;4995529;28;93475;-63
2023/10/07 10:36:43;;;;;;;30.17;5.97;;;;;;;;;;4994463;28;95004;-62
2023/10/07 10:39:22;;;;;;;28.40;5.53;;;;;;;;;;4995300;28;96557;-63
2023/10/07 10:41:54;;;;;;;26.52;6.47;;;;;;;;;;4992222;28;93291;-63
2023/10/07 10:44:21;;;;;;;22.13;5.00;;;;;;;;;;4991282;28;92706;-63
2023/10/07 10:46:49;;;;;;;24.63;5.68;;;;;;;;;;4995903;28;93329;-63
2023/10/07 10:49:16;;;;;;;20.58;5.18;;;;;;;;;;4994928;28;94380;-63
2023/10/07 10:51:50;;;;;;;27.13;5.75;;;;;;;;;;4995556;28;92623;-64
2023/10/07 10:54:18;;;;;;;20.63;5.25;;;;;;;;;;4995303;28;91775;-63
2023/10/07 10:56:49;;;;;;;16.83;4.53;;;;;;;;;;4995246;28;92542;-63
2023/10/07 10:59:17;;;;;;;27.90;5.60;;;;;;;;;;4994614;28;93367;-63
2023/10/07 11:01:45;;;;;;;17.45;4.60;;;;;;;;;;4993181;28;95476;-63
2023/10/07 11:04:15;;;;;;;21.25;5.03;;;;;;;;;;4994972;28;92750;-63
2023/10/07 11:06:41;;;;;;;26.88;5.63;;;;;;;;;;4994838;28;93343;-63
2023/10/07 11:09:09;;;;;;;23.52;6.10;;;;;;;;;;4995128;28;92446;-63
2023/10/07 11:11:36;;;;;;;20.05;4.97;;;;;;;;;;4994319;28;92437;-63
2023/10/07 11:14:05;;;;;;;22.60;4.97;;;;;;;;;;4993840;28;93225;-63
2023/10/07 11:16:43;;;;;;;18.98;5.13;;;;;;;;;;4997371;28;93466;-65
2023/10/07 11:19:12;;;;;;;25.48;5.78;;;;;;;;;;4995602;28;93000;-66
2023/10/07 11:21:41;;;;;;;18.88;5.05;;;;;;;;;;4994574;28;93555;-66
2023/10/07 11:24:08;;;;;;;17.20;5.10;;;;;;;;;;4994959;28;93759;-66
2023/10/07 11:26:36;;;;;;;17.70;5.20;;;;;;;;;;4993239;28;95107;-66
2023/10/07 11:29:13;;;;;;;18.85;4.60;;;;;;;;;;4993999;28;93721;-66
2023/10/07 11:31:41;;;;;;;20.40;5.18;;;;;;;;;;4994330;28;92843;-65
2023/10/07 11:34:10;;;;;;;15.07;4.93;;;;;;;;;;4993437;28;93159;-66
2023/10/07 11:36:46;;;;;;;20.17;5.05;;;;;;;;;;4994183;28;94363;-66
2023/10/07 11:39:15;;;;;;;17.35;4.65;;;;;;;;;;4996787;28;92723;-66
2023/10/07 11:41:41;;;;;;;12.88;4.90;;;;;;;;;;4993520;28;93413;-66
2023/10/07 11:44:09;;;;;;;11.57;3.75;;;;;;;;;;4994362;28;91650;-66
2023/10/07 11:46:37;;;;;;;17.50;4.78;;;;;;;;;;4994805;28;93506;-66
2023/10/07 11:49:03;;;;;;;14.88;4.32;;;;;;;;;;4993509;28;95920;-65
2023/10/07 11:51:32;;;;;;;15.30;4.47;;;;;;;;;;4993676;28;94952;-65
2023/10/07 11:54:00;;;;;;;16.38;4.30;;;;;;;;;;4993351;28;95424;-66
2023/10/07 11:56:27;;;;;;;14.05;4.43;;;;;;;;;;4993931;28;93257;-65
2023/10/07 11:58:54;;;;;;;9.68;3.83;;;;;;;;;;4994367;28;92415;-65
2023/10/07 12:01:21;;;;;;;19.50;5.13;;;;;;;;;;4993661;28;92530;-65
2023/10/07 12:03:48;;;;;;;13.82;4.13;;;;;;;;;;4992466;28;92930;-65
2023/10/07 12:06:15;;;;;;;13.15;4.05;;;;;;;;;;4994271;28;93093;-65
2023/10/07 12:08:42;;;;;;;14.82;4.93;;;;;;;;;;4994376;28;92875;-65
2023/10/07 12:11:08;;;;;;;17.48;3.83;;;;;;;;;;4993201;28;92445;-66
2023/10/07 12:13:35;;;;;;;17.30;4.65;;;;;;;;;;4994374;28;93179;-66
2023/10/07 12:16:01;;;;;;;10.57;3.95;;;;;;;;;;4991781;28;96757;-66
2023/10/07 12:18:31;;;;;;;;;;;;;;;;;;4994454;28;92554;-64
2023/10/07 12:21:00;;;;;;;15.15;4.35;;;;;;;;;;4997288;28;123399;-66
2023/10/07 12:23:27;;;;;;;15.35;4.47;;;;;;;;;;4993573;28;92457;-66
2023/10/07 12:25:54;;;;;;;12.85;4.40;;;;;;;;;;4993677;28;93220;-66
2023/10/07 12:28:20;;;;;;;16.73;4.63;;;;;;;;;;4994515;28;94477;-63
2023/10/07 12:30:49;;;;;;;11.98;3.85;;;;;;;;;;4993480;28;92555;-63
2023/10/07 12:33:15;;;;;;;19.92;4.63;;;;;;;;;;4993832;28;94160;-63
2023/10/07 12:36:00;;;;;;;12.60;4.55;;;;;;;;;;4992799;28;93425;-63
2023/10/07 12:38:27;;;;;;;13.02;4.22;;;;;;;;;;4993754;28;92618;-64
2023/10/07 12:40:54;;;;;;;13.35;4.60;;;;;;;;;;4991996;28;95094;-64
2023/10/07 12:43:22;;;;;;;11.88;4.22;;;;;;;;;;4995909;28;94576;-63
2023/10/07 12:45:49;;;;;;;21.02;8.27;;;;;;;;;;4992592;28;94183;-63
2023/10/07 12:48:16;;;;;;;19.75;10.07;;;;;;;;;;4992935;28;93561;-63
2023/10/07 12:50:42;;;;;;;12.65;4.35;;;;;;;;;;4992669;28;92957;-63
2023/10/07 12:53:10;;;;;;;15.80;4.82;;;;;;;;;;4993637;28;93438;-63
2023/10/07 12:55:37;;;;;;;13.15;4.15;;;;;;;;;;4993454;28;92888;-63
2023/10/07 12:58:06;;;;;;;15.75;5.05;;;;;;;;;;4993782;28;91820;-63
2023/10/07 13:00:33;;;;;;;18.65;5.45;;;;;;;;;;4992515;28;92530;-63
2023/10/07 13:03:06;;;;;;;15.57;4.13;;;;;;;;;;4992531;28;93340;-64
2023/10/07 13:05:37;;;;;;;14.48;4.50;;;;;;;;;;4994907;28;94919;-63
2023/10/07 13:08:15;;;;;;;13.70;4.07;;;;;;;;;;4993016;28;92691;-63
2023/10/07 13:10:42;;;;;;;11.45;4.55;;;;;;;;;;4993065;28;92365;-63
2023/10/07 13:13:08;;;;;;;17.85;4.90;;;;;;;;;;4990002;28;93111;-63
2023/10/07 13:15:35;;;;;;;18.20;4.43;;;;;;;;;;4992220;28;93756;-63
2023/10/07 13:18:02;;;;;;;16.02;4.90;;;;;;;;;;4996294;28;92796;-63
2023/10/07 13:20:30;;;;;;;15.45;4.68;;;;;;;;;;4992900;28;93139;-64
2023/10/07 13:22:57;;;;;;;16.48;4.20;;;;;;;;;;4993589;28;93696;-64
2023/10/07 13:25:26;;;;;;;25.50;4.60;;;;;;;;;;4989172;28;92426;-63
2023/10/07 13:27:55;;;;;;;24.88;4.20;;;;;;;;;;4995799;28;93943;-63
2023/10/07 13:30:24;;;;;;;24.88;4.80;;;;;;;;;;4991371;28;94945;-64
2023/10/07 13:32:52;;;;;;;17.27;4.43;;;;;;;;;;4993355;28;96013;-63
2023/10/07 13:35:19;;;;;;;16.00;4.85;;;;;;;;;;4992394;28;93474;-63
2023/10/07 13:37:46;;;;;;;15.60;4.68;;;;;;;;;;4992738;28;92470;-63
2023/10/07 13:40:16;;;;;;;22.27;5.18;;;;;;;;;;4992123;28;93414;-63
2023/10/07 13:42:43;;;;;;;14.80;4.53;;;;;;;;;;4991628;28;94012;-63
2023/10/07 13:45:13;;;;;;;15.32;4.10;;;;;;;;;;4993094;28;92483;-64
2023/10/07 13:47:40;;;;;;;;;;;;;;;;;;4993966;28;94236;-61
2023/10/07 13:50:13;;;;;;;22.92;4.97;;;;;;;;;;4995906;28;124171;-63
2023/10/07 13:52:50;;;;;;;12.35;3.72;;;;;;;;;;4992956;28;92942;-64
2023/10/07 13:55:22;;;;;;;13.65;4.78;;;;;;;;;;4991427;28;94865;-64
2023/10/07 13:57:55;;;;;;;17.17;4.75;;;;;;;;;;4995180;28;92488;-63
2023/10/07 14:03:00;;;;;;;12.40;4.05;;;;;;;;;;4992766;28;93477;-64
2023/10/07 14:05:27;;;;;;;14.73;4.95;;;;;;;;;;4995879;28;92446;-63
2023/10/07 14:07:53;;;;;;;14.27;4.63;;;;;;;;;;4995814;28;93058;-63
2023/10/07 14:10:23;;;;;;;18.77;4.80;;;;;;;;;;4996407;28;93516;-63
2023/10/07 14:12:52;;;;;;;17.48;4.63;;;;;;;;;;4998440;28;92104;-64
2023/10/07 14:15:21;;;;;;;18.27;5.00;;;;;;;;;;4994961;28;93821;-63
2023/10/07 14:17:48;;;;;;;13.20;4.03;;;;;;;;;;4995617;28;92458;-64
2023/10/07 14:20:15;;;;;;;13.48;4.55;;;;;;;;;;4993822;28;94834;-63
2023/10/07 14:22:42;;;;;;;18.60;4.85;;;;;;;;;;4996045;28;93565;-63
2023/10/07 14:25:08;;;;;;;16.25;4.43;;;;;;;;;;4995406;28;92550;-63
2023/10/07 14:27:37;;;;;;;14.20;4.13;;;;;;;;;;4994971;28;93188;-64
2023/10/07 14:30:04;;;;;;;15.63;5.28;;;;;;;;;;4995310;28;93426;-63
2023/10/07 14:32:30;;;;;;;14.90;4.80;;;;;;;;;;5003162;28;94735;-63
2023/10/07 14:34:57;;;;;;;20.92;4.75;;;;;;;;;;4991441;28;93538;-63
2023/10/07 14:37:23;;;;;;;17.80;5.30;;;;;;;;;;4995734;28;91856;-63
2023/10/07 14:39:51;;;;;;;11.32;3.90;;;;;;;;;;4994860;28;93764;-62
2023/10/07 14:42:23;;;;;;;19.65;5.15;;;;;;;;;;4995147;28;94467;-63
2023/10/07 14:44:51;;;;;;;16.85;4.85;;;;;;;;;;4993482;28;94838;-63
2023/10/07 14:47:17;;;;;;;22.63;5.95;;;;;;;;;;4995474;28;94565;-63
2023/10/07 14:49:44;;;;;;;18.88;4.55;;;;;;;;;;4994786;28;93507;-65
2023/10/07 14:52:10;;;;;;;22.77;5.57;;;;;;;;;;4994321;28;92526;-66
2023/10/07 14:54:37;;;;;;;24.73;5.57;;;;;;;;;;4998064;28;93712;-65
2023/10/07 14:57:06;;;;;;;18.48;5.35;;;;;;;;;;4995263;28;92600;-65
2023/10/07 14:59:35;;;;;;;16.40;4.45;;;;;;;;;;4995599;28;93163;-65
2023/10/07 15:02:02;;;;;;;23.45;5.22;;;;;;;;;;4995928;28;93676;-65
2023/10/07 15:04:29;;;;;;;18.48;5.03;;;;;;;;;;4995098;28;92468;-65
2023/10/07 15:06:56;;;;;;;17.48;4.88;;;;;;;;;;4994116;28;94469;-65
2023/10/07 15:09:23;;;;;;;28.42;8.07;;;;;;;;;;4993384;28;96091;-65
2023/10/07 15:11:50;;;;;;;18.38;5.65;;;;;;;;;;4994599;28;92686;-65
2023/10/07 15:14:18;;;;;;;23.33;5.13;;;;;;;;;;4994411;28;94275;-65
2023/10/07 15:16:47;;;;;;;22.67;5.22;;;;;;;;;;4998058;28;93290;-66
2023/10/07 15:19:16;;;;;;;26.30;5.63;;;;;;;;;;4995014;28;93717;-66